Time;durP1;ratioP1;P1;durP2;ratioP2;P2;SDS_P1;SDS_P2;PMS_P1;PMS_P2;Temp;Humidity;BMP_temperature;BMP_pressure;BME280_temperature;BME280_humidity;BME280_pressure;Samples;Min_cycle;Max_cycle;Signal;HPM_P1;HPM_P2
2022/06/02 00:00:05;;;;;;;;;;;;;;;;;;5094279;28;19908;-56
2022/06/02 00:02:32;;;;;;;;;;;;;;;;;;5093371;28;19908;-45
2022/06/02 00:04:58;;;;;;;;;;;;;;;;;;5093834;28;19916;-48
2022/06/02 00:07:28;;;;;;;;;;;;;;;;;;5093560;28;19959;-54
2022/06/02 00:09:55;;;;;;;;;;;;;;;;;;5094051;28;19919;-48
2022/06/02 00:12:24;;;;;;;;;;;;;;;;;;5093589;28;19915;-57
2022/06/02 00:14:51;;;;;;;;;;;;;;;;;;5093769;28;19916;-57
2022/06/02 00:17:17;;;;;;;;;;;;;;;;;;5093460;28;19908;-52
2022/06/02 00:19:44;;;;;;;;;;;;;;;;;;5093385;28;19908;-50
2022/06/02 00:22:10;;;;;;;;;;;;;;;;;;5089738;28;20397;-50
2022/06/02 00:24:37;;;;;;;;;;;;;;;;;;5090636;28;20274;-57
2022/06/02 00:27:03;;;;;;;;;;;;;;;;;;5092112;28;19908;-48
2022/06/02 00:29:30;;;;;;;;;;;;;;;;;;5089748;28;19918;-56
2022/06/02 00:31:57;;;;;;;;;;;;;;;;;;5090513;28;19912;-53
2022/06/02 00:34:23;;;;;;;;;;;;;;;;;;5090656;28;19916;-49
2022/06/02 00:36:50;;;;;;;;;;;;;;;;;;5090613;28;19912;-47
2022/06/02 00:39:16;;;;;;;;;;;;;;;;;;5089062;28;19908;-57
2022/06/02 00:41:43;;;;;;;;;;;;;;;;;;5090470;28;19934;-56
2022/06/02 00:44:09;;;;;;;;;;;;;;;;;;5090852;28;20016;-51
2022/06/02 00:46:35;;;;;;;;;;;;;;;;;;5089268;28;19997;-58
2022/06/02 00:49:02;;;;;;;;;;;;;;;;;;5087917;28;19942;-50
2022/06/02 00:51:29;;;;;;;;;;;;;;;;;;5092430;28;19981;-49
2022/06/02 00:59:25;;;;;;;;;;;;;;;;;;5093455;28;19962;-54
2022/06/02 01:01:52;;;;;;;;;;;;;;;;;;5093026;28;20012;-56
2022/06/02 01:04:18;;;;;;;;;;;;;;;;;;5092985;28;19908;-47
2022/06/02 01:06:45;;;;;;;;;;;;;;;;;;5090803;28;19912;-60
2022/06/02 01:09:11;;;;;;;;;;;;;;;;;;5092691;28;19973;-49
2022/06/02 01:11:37;;;;;;;;;;;;;;;;;;5069786;28;19912;-45
2022/06/02 01:14:04;;;;;;;;;;;;;;;;;;5065131;28;19920;-47
2022/06/02 01:16:34;;;;;;;;;;;;;;;;;;5061340;28;20337;-58
2022/06/02 01:19:00;;;;;;;;;;;;;;;;;;5070763;28;20378;-41
2022/06/02 01:21:27;;;;;;;;;;;;;;;;;;5070811;28;19909;-50
2022/06/02 01:23:54;;;;;;;;;;;;;;;;;;5070816;28;20332;-50
2022/06/02 01:26:20;;;;;;;;;;;;;;;;;;5071127;28;19908;-53
2022/06/02 01:28:47;;;;;;;;;;;;;;;;;;5070739;28;19909;-54
2022/06/02 01:31:13;;;;;;;;;;;;;;;;;;5071108;28;19954;-54
2022/06/02 01:33:39;;;;;;;;;;;;;;;;;;5070724;28;20026;-58
2022/06/02 01:36:06;;;;;;;;;;;;;;;;;;5072274;28;19912;-54
2022/06/02 01:38:32;;;;;;;;;;;;;;;;;;5072113;28;20374;-46
2022/06/02 01:41:02;;;;;;;;;;;;;;;;;;5072084;28;20413;-52
2022/06/02 01:43:28;;;;;;;;;;;;;;;;;;5072469;28;19952;-53
2022/06/02 01:45:55;;;;;;;;;;;;;;;;;;5072204;28;19908;-56
2022/06/02 01:48:21;;;;;;;;;;;;;;;;;;5072281;28;19912;-57
2022/06/02 01:50:48;;;;;;;;;;;;;;;;;;5071948;28;19924;-42
2022/06/02 01:53:14;;;;;;;;;;;;;;;;;;5072349;28;20000;-53
2022/06/02 01:55:41;;;;;;;;;;;;;;;;;;5071690;28;19989;-53
2022/06/02 01:58:07;;;;;;;;;;;;;;;;;;5054147;28;19995;-56
2022/06/02 02:00:34;;;;;;;;;;;;;;;;;;5072133;28;19905;-49
2022/06/02 02:03:01;;;;;;;;;;;;;;;;;;5072192;28;19909;-54
2022/06/02 02:05:27;;;;;;;;;;;;;;;;;;5072578;28;19991;-54
2022/06/02 02:07:54;;;;;;;;;;;;;;;;;;5071691;28;19920;-60
2022/06/02 02:10:21;;;;;;;;;;;;;;;;;;5091961;28;20290;-54
2022/06/02 02:12:47;;;;;;;;;;;;;;;;;;5091858;28;19927;-58
2022/06/02 02:15:15;;;;;;;;;;;;;;;;;;5091943;28;19916;-50
2022/06/02 02:17:42;;;;;;;;;;;;;;;;;;5092123;28;19908;-54
2022/06/02 02:20:08;;;;;;;;;;;;;;;;;;5091129;28;20004;-48
2022/06/02 02:22:35;;;;;;;;;;;;;;;;;;5091041;28;20366;-49
2022/06/02 02:25:01;;;;;;;;;;;;;;;;;;5091882;28;19967;-58
2022/06/02 02:27:28;;;;;;;;;;;;;;;;;;5091618;28;19948;-58
2022/06/02 02:29:54;;;;;;;;;;;;;;;;;;5092631;28;19954;-51
2022/06/02 02:32:20;;;;;;;;;;;;;;;;;;5095494;28;20073;-51
2022/06/02 02:34:47;;;;;;;;;;;;;;;;;;5095964;28;19916;-52
2022/06/02 02:37:14;;;;;;;;;;;;;;;;;;5095667;28;20385;-57
2022/06/02 02:39:40;;;;;;;;;;;;;;;;;;5096250;28;20021;-58
2022/06/02 02:42:07;;;;;;;;;;;;;;;;;;5096046;28;19916;-51
2022/06/02 02:44:34;;;;;;;;;;;;;;;;;;5095216;28;20274;-56
2022/06/02 02:47:01;;;;;;;;;;;;;;;;;;5095758;28;19962;-51
2022/06/02 02:49:27;;;;;;;;;;;;;;;;;;5095376;28;19919;-53
2022/06/02 02:51:54;;;;;;;;;;;;;;;;;;5095433;28;19935;-59
2022/06/02 02:54:21;;;;;;;;;;;;;;;;;;5095262;28;19912;-50
2022/06/02 02:56:48;;;;;;;;;;;;;;;;;;5095334;28;19916;-49
2022/06/02 02:59:15;;;;;;;;;;;;;;;;;;5095395;28;19995;-50
2022/06/02 03:01:41;;;;;;;;;;;;;;;;;;5095122;28;19908;-57
2022/06/02 03:04:08;;;;;;;;;;;;;;;;;;5094840;28;19919;-52
2022/06/02 03:06:34;;;;;;;;;;;;;;;;;;5095036;28;19908;-55
2022/06/02 03:09:02;;;;;;;;;;;;;;;;;;5095195;28;19966;-47
2022/06/02 03:11:29;;;;;;;;;;;;;;;;;;5095225;28;20290;-55
2022/06/02 03:13:55;;;;;;;;;;;;;;;;;;5094676;28;20045;-60
2022/06/02 03:16:22;;;;;;;;;;;;;;;;;;5093825;28;20011;-55
2022/06/02 03:18:48;;;;;;;;;;;;;;;;;;5090417;28;20005;-53
2022/06/02 03:21:15;;;;;;;;;;;;;;;;;;5097349;28;19918;-43
2022/06/02 03:23:42;;;;;;;;;;;;;;;;;;5103602;28;20404;-46
2022/06/02 03:26:08;;;;;;;;;;;;;;;;;;5092387;28;20317;-53
2022/06/02 03:28:35;;;;;;;;;;;;;;;;;;5091629;28;19908;-53
2022/06/02 03:31:01;;;;;;;;;;;;;;;;;;5092475;28;19961;-44
2022/06/02 03:33:28;;;;;;;;;;;;;;;;;;5091976;28;19912;-40
2022/06/02 03:35:54;;;;;;;;;;;;;;;;;;5091829;28;20374;-43
2022/06/02 03:38:21;;;;;;;;;;;;;;;;;;5092488;28;20286;-41
2022/06/02 03:40:47;;;;;;;;;;;;;;;;;;5092119;28;19908;-40
2022/06/02 03:43:14;;;;;;;;;;;;;;;;;;5088519;28;19908;-40
2022/06/02 03:45:41;;;;;;;;;;;;;;;;;;5091260;28;20335;-40
2022/06/02 03:48:07;;;;;;;;;;;;;;;;;;5091884;28;19969;-39
2022/06/02 03:50:34;;;;;;;;;;;;;;;;;;5092204;28;20289;-42
2022/06/02 03:53:00;;;;;;;;;;;;;;;;;;5088661;28;19908;-43
2022/06/02 03:55:27;;;;;;;;;;;;;;;;;;5091514;28;19963;-42
2022/06/02 03:57:53;;;;;;;;;;;;;;;;;;5091350;28;19931;-55
2022/06/02 04:00:20;;;;;;;;;;;;;;;;;;5090932;28;19947;-49
2022/06/02 04:02:46;;;;;;;;;;;;;;;;;;5088028;28;20003;-50
2022/06/02 04:05:13;;;;;;;;;;;;;;;;;;5090439;28;19908;-45
2022/06/02 04:07:39;;;;;;;;;;;;;;;;;;5085633;28;20010;-51
2022/06/02 04:10:06;;;;;;;;;;;;;;;;;;5082818;28;19912;-44
2022/06/02 04:15:17;;;;;;;;;;;;;;;;;;5078042;28;19979;-54
2022/06/02 04:17:44;;;;;;;;;;;;;;;;;;5072469;28;19916;-43
2022/06/02 04:22:55;;;;;;;;;;;;;;;;;;5069320;28;20271;-44
2022/06/02 04:25:21;;;;;;;;;;;;;;;;;;5072407;28;19916;-46
2022/06/02 04:27:48;;;;;;;;;;;;;;;;;;5071606;28;19918;-44
2022/06/02 04:30:14;;;;;;;;;;;;;;;;;;5071962;28;20388;-41
2022/06/02 04:32:41;;;;;;;;;;;;;;;;;;5072053;28;19990;-43
2022/06/02 04:35:08;;;;;;;;;;;;;;;;;;5071989;28;20358;-47
2022/06/02 04:37:34;;;;;;;;;;;;;;;;;;5072747;28;19991;-40
2022/06/02 04:40:01;;;;;;;;;;;;;;;;;;5072983;28;19909;-44
2022/06/02 04:42:27;;;;;;;;;;;;;;;;;;5072480;28;19915;-53
2022/06/02 04:44:54;;;;;;;;;;;;;;;;;;5072795;28;19959;-46
2022/06/02 04:47:22;;;;;;;;;;;;;;;;;;5072638;28;19916;-45
2022/06/02 04:49:49;;;;;;;;;;;;;;;;;;5072458;28;19931;-41
2022/06/02 04:52:15;;;;;;;;;;;;;;;;;;5072347;28;19923;-46
2022/06/02 04:54:42;;;;;;;;;;;;;;;;;;5072543;28;19912;-51
2022/06/02 04:57:09;;;;;;;;;;;;;;;;;;5072389;28;20000;-53
2022/06/02 04:59:35;;;;;;;;;;;;;;;;;;5072490;28;19904;-48
2022/06/02 05:02:01;;;;;;;;;;;;;;;;;;5072825;28;19916;-50
2022/06/02 05:04:28;;;;;;;;;;;;;;;;;;5071685;28;19987;-49
2022/06/02 05:06:54;;;;;;;;;;;;;;;;;;5074655;28;20064;-45
2022/06/02 05:09:22;;;;;;;;;;;;;;;;;;5092388;28;20339;-46
2022/06/02 05:11:48;;;;;;;;;;;;;;;;;;5092608;28;20281;-44
2022/06/02 05:14:15;;;;;;;;;;;;;;;;;;5092720;28;19913;-49
2022/06/02 05:16:41;;;;;;;;;;;;;;;;;;5091996;28;19991;-56
2022/06/02 05:19:08;;;;;;;;;;;;;;;;;;5092724;28;19917;-49
2022/06/02 05:21:34;;;;;;;;;;;;;;;;;;5092973;28;20003;-46
2022/06/02 05:24:01;;;;;;;;;;;;;;;;;;5092704;28;20365;-52
2022/06/02 05:26:27;;;;;;;;;;;;;;;;;;5092828;28;20381;-51
2022/06/02 05:28:53;;;;;;;;;;;;;;;;;;5093170;28;19931;-45
2022/06/02 05:31:20;;;;;;;;;;;;;;;;;;5092116;28;19962;-51
2022/06/02 05:33:46;;;;;;;;;;;;;;;;;;5092548;28;19963;-52
2022/06/02 05:36:13;;;;;;;;;;;;;;;;;;5092435;28;20367;-46
2022/06/02 05:38:39;;;;;;;;;;;;;;;;;;5091457;28;20033;-47
2022/06/02 05:41:06;;;;;;;;;;;;;;;;;;5073926;28;19935;-46
2022/06/02 05:43:32;;;;;;;;;;;;;;;;;;5089679;28;19962;-51
2022/06/02 05:45:59;;;;;;;;;;;;;;;;;;5074487;28;19916;-47
2022/06/02 05:48:25;;;;;;;;;;;;;;;;;;5081607;28;20015;-50
2022/06/02 05:50:52;;;;;;;;;;;;;;;;;;5083717;28;19908;-46
2022/06/02 05:53:19;;;;;;;;;;;;;;;;;;5084780;28;19999;-50
2022/06/02 05:55:46;;;;;;;;;;;;;;;;;;5074972;28;19923;-51
2022/06/02 05:58:13;;;;;;;;;;;;;;;;;;5073178;28;19924;-49
2022/06/02 06:00:39;;;;;;;;;;;;;;;;;;5070643;28;19919;-41
2022/06/02 06:03:06;;;;;;;;;;;;;;;;;;5082361;28;19960;-48
2022/06/02 06:05:32;;;;;;;;;;;;;;;;;;5085685;28;20382;-46
2022/06/02 06:07:59;;;;;;;;;;;;;;;;;;5088949;28;20410;-43
2022/06/02 06:10:25;;;;;;;;;;;;;;;;;;5084556;28;20406;-43
2022/06/02 06:12:52;;;;;;;;;;;;;;;;;;5085680;28;19919;-43
2022/06/02 06:15:18;;;;;;;;;;;;;;;;;;5086290;28;19960;-44
2022/06/02 06:17:45;;;;;;;;;;;;;;;;;;5082006;28;19908;-46
2022/06/02 06:20:12;;;;;;;;;;;;;;;;;;5081211;28;19928;-51
2022/06/02 06:22:39;;;;;;;;;;;;;;;;;;5083255;28;19988;-44
2022/06/02 06:25:05;;;;;;;;;;;;;;;;;;5087939;28;19916;-49
2022/06/02 06:27:33;;;;;;;;;;;;;;;;;;5089420;28;19908;-48
2022/06/02 06:29:59;;;;;;;;;;;;;;;;;;5079562;28;20002;-42
2022/06/02 06:32:26;;;;;;;;;;;;;;;;;;5087476;28;20349;-45
2022/06/02 06:34:52;;;;;;;;;;;;;;;;;;5089872;28;20256;-50
2022/06/02 06:37:19;;;;;;;;;;;;;;;;;;5086829;28;20235;-49
2022/06/02 06:39:46;;;;;;;;;;;;;;;;;;5081815;28;19908;-51
2022/06/02 06:42:13;;;;;;;;;;;;;;;;;;5089221;28;20449;-49
2022/06/02 06:44:39;;;;;;;;;;;;;;;;;;5088177;28;19927;-53
2022/06/02 06:47:06;;;;;;;;;;;;;;;;;;5088798;28;19953;-42
2022/06/02 06:49:32;;;;;;;;;;;;;;;;;;5080900;28;19970;-46
2022/06/02 06:51:59;;;;;;;;;;;;;;;;;;5068322;28;19995;-45
2022/06/02 06:54:25;;;;;;;;;;;;;;;;;;5089914;28;19916;-43
2022/06/02 06:56:52;;;;;;;;;;;;;;;;;;5089506;28;19915;-43
2022/06/02 06:59:19;;;;;;;;;;;;;;;;;;5074930;28;21005;-48
2022/06/02 07:01:45;;;;;;;;;;;;;;;;;;5088564;28;19977;-42
2022/06/02 07:04:11;;;;;;;;;;;;;;;;;;5089937;28;19959;-44
2022/06/02 07:06:38;;;;;;;;;;;;;;;;;;5088099;28;19991;-44
2022/06/02 07:09:04;;;;;;;;;;;;;;;;;;5094474;28;19916;-50
2022/06/02 07:14:17;;;;;;;;;;;;;;;;;;5094534;28;19919;-54
2022/06/02 07:16:44;;;;;;;;;;;;;;;;;;5092945;28;20241;-46
2022/06/02 07:19:10;;;;;;;;;;;;;;;;;;5095059;28;19912;-53
2022/06/02 07:21:37;;;;;;;;;;;;;;;;;;5095124;28;19908;-50
2022/06/02 07:24:03;;;;;;;;;;;;;;;;;;5094897;28;19904;-50
2022/06/02 07:26:30;;;;;;;;;;;;;;;;;;5093807;28;19926;-50
2022/06/02 07:28:56;;;;;;;;;;;;;;;;;;5094660;28;20289;-43
2022/06/02 07:31:23;;;;;;;;;;;;;;;;;;5084544;28;19913;-48
2022/06/02 07:33:49;;;;;;;;;;;;;;;;;;5082458;28;19918;-50
2022/06/02 07:36:16;;;;;;;;;;;;;;;;;;5087250;28;20553;-54
2022/06/02 07:38:42;;;;;;;;;;;;;;;;;;5084906;28;19908;-54
2022/06/02 07:41:09;;;;;;;;;;;;;;;;;;5088309;28;19909;-47
2022/06/02 07:43:35;;;;;;;;;;;;;;;;;;5080661;28;19909;-58
2022/06/02 07:46:02;;;;;;;;;;;;;;;;;;5085507;28;19909;-51
2022/06/02 07:48:28;;;;;;;;;;;;;;;;;;5087598;28;20333;-42
2022/06/02 07:50:55;;;;;;;;;;;;;;;;;;5083795;28;19908;-44
2022/06/02 07:53:21;;;;;;;;;;;;;;;;;;5080435;28;19911;-41
2022/06/02 07:55:49;;;;;;;;;;;;;;;;;;5088710;28;19923;-41
2022/06/02 07:58:16;;;;;;;;;;;;;;;;;;5088438;28;19973;-43
2022/06/02 08:00:42;;;;;;;;;;;;;;;;;;5081206;28;20418;-42
2022/06/02 08:03:09;;;;;;;;;;;;;;;;;;5084795;28;20259;-40
2022/06/02 08:05:35;;;;;;;;;;;;;;;;;;5073496;28;19966;-44
2022/06/02 08:08:02;;;;;;;;;;;;;;;;;;5085466;28;19920;-49
2022/06/02 08:10:28;;;;;;;;;;;;;;;;;;5093919;28;19908;-48
2022/06/02 08:12:56;;;;;;;;;;;;;;;;;;5093205;28;20335;-51
2022/06/02 08:15:22;;;;;;;;;;;;;;;;;;5093408;28;20316;-44
2022/06/02 08:17:49;;;;;;;;;;;;;;;;;;5086461;28;20506;-47
2022/06/02 08:20:16;;;;;;;;;;;;;;;;;;5091811;28;19933;-46
2022/06/02 08:22:42;;;;;;;;;;;;;;;;;;5090472;28;19916;-51
2022/06/02 08:25:09;;;;;;;;;;;;;;;;;;5090965;28;19916;-49
2022/06/02 08:27:35;;;;;;;;;;;;;;;;;;5089944;28;19908;-48
2022/06/02 08:30:02;;;;;;;;;;;;;;;;;;5086840;28;19951;-51
2022/06/02 08:32:28;;;;;;;;;;;;;;;;;;5090414;28;20428;-43
2022/06/02 08:34:54;;;;;;;;;;;;;;;;;;5095122;28;19923;-45
2022/06/02 08:37:21;;;;;;;;;;;;;;;;;;5091463;28;19908;-47
2022/06/02 08:39:47;;;;;;;;;;;;;;;;;;5086327;28;19920;-49
2022/06/02 08:42:16;;;;;;;;;;;;;;;;;;5092101;28;19908;-49
2022/06/02 08:44:42;;;;;;;;;;;;;;;;;;5090547;28;19955;-53
2022/06/02 08:47:09;;;;;;;;;;;;;;;;;;5090857;28;19989;-47
2022/06/02 08:49:35;;;;;;;;;;;;;;;;;;5086744;28;20046;-51
2022/06/02 08:52:01;;;;;;;;;;;;;;;;;;5093994;28;19920;-51
2022/06/02 08:54:28;;;;;;;;;;;;;;;;;;5093261;28;20251;-57
2022/06/02 08:56:54;;;;;;;;;;;;;;;;;;5103874;28;19949;-50
2022/06/02 08:59:21;;;;;;;;;;;;;;;;;;5110963;28;19908;-40
2022/06/02 09:01:48;;;;;;;;;;;;;;;;;;5087795;28;19919;-54
2022/06/02 09:04:14;;;;;;;;;;;;;;;;;;5093022;28;19908;-50
2022/06/02 09:06:41;;;;;;;;;;;;;;;;;;5090800;28;20103;-63
2022/06/02 09:09:23;;;;;;;;;;;;;;;;;;5093259;28;20325;-45
2022/06/02 09:11:50;;;;;;;;;;;;;;;;;;5044199;28;20006;-51
2022/06/02 09:14:16;;;;;;;;;;;;;;;;;;5071438;28;19943;-40
2022/06/02 09:16:43;;;;;;;;;;;;;;;;;;5068416;28;19912;-62
2022/06/02 09:19:10;;;;;;;;;;;;;;;;;;5054544;28;19912;-57
2022/06/02 09:21:36;;;;;;;;;;;;;;;;;;5071971;28;19951;-57
2022/06/02 09:24:03;;;;;;;;;;;;;;;;;;5081344;28;19908;-58
2022/06/02 09:26:30;;;;;;;;;;;;;;;;;;5089687;28;20259;-46
2022/06/02 09:28:56;;;;;;;;;;;;;;;;;;5052191;28;19912;-40
2022/06/02 09:31:23;;;;;;;;;;;;;;;;;;5069633;28;19930;-64
2022/06/02 09:33:49;;;;;;;;;;;;;;;;;;5066587;28;19916;-48
2022/06/02 09:36:16;;;;;;;;;;;;;;;;;;5064907;28;19916;-55
2022/06/02 09:38:42;;;;;;;;;;;;;;;;;;5067757;28;19909;-46
2022/06/02 09:41:09;;;;;;;;;;;;;;;;;;5068520;28;19909;-44
2022/06/02 09:43:36;;;;;;;;;;;;;;;;;;5071754;28;19913;-44
2022/06/02 09:46:02;;;;;;;;;;;;;;;;;;5071448;28;19931;-50
2022/06/02 09:48:29;;;;;;;;;;;;;;;;;;5075073;28;20378;-46
2022/06/02 09:50:55;;;;;;;;;;;;;;;;;;5073690;28;19909;-56
2022/06/02 09:53:22;;;;;;;;;;;;;;;;;;5072597;28;19911;-41
2022/06/02 09:55:48;;;;;;;;;;;;;;;;;;5071788;28;19916;-50
2022/06/02 09:58:15;;;;;;;;;;;;;;;;;;5072343;28;19909;-51
2022/06/02 10:00:42;;;;;;;;;;;;;;;;;;5072748;28;19955;-48
2022/06/02 10:03:09;;;;;;;;;;;;;;;;;;5072317;28;20288;-58
2022/06/02 10:05:35;;;;;;;;;;;;;;;;;;5072251;28;20321;-50
2022/06/02 10:08:02;;;;;;;;;;;;;;;;;;5075133;28;19947;-53
2022/06/02 10:10:28;;;;;;;;;;;;;;;;;;5070385;28;20015;-56
2022/06/02 10:12:55;;;;;;;;;;;;;;;;;;5082487;28;19912;-52
2022/06/02 10:15:21;;;;;;;;;;;;;;;;;;5079891;28;19917;-43
2022/06/02 10:17:48;;;;;;;;;;;;;;;;;;5085498;28;20246;-55
2022/06/02 10:20:14;;;;;;;;;;;;;;;;;;5081706;28;19920;-56
2022/06/02 10:22:41;;;;;;;;;;;;;;;;;;5084679;28;19908;-57
2022/06/02 10:25:08;;;;;;;;;;;;;;;;;;5060532;28;19928;-43
2022/06/02 10:27:35;;;;;;;;;;;;;;;;;;5079907;28;19916;-56
2022/06/02 10:30:03;;;;;;;;;;;;;;;;;;5084197;28;20354;-48
2022/06/02 10:32:29;;;;;;;;;;;;;;;;;;5087109;28;19952;-53
2022/06/02 10:34:56;;;;;;;;;;;;;;;;;;5078674;28;19924;-54
2022/06/02 10:37:22;;;;;;;;;;;;;;;;;;5084114;28;19916;-57
2022/06/02 10:39:49;;;;;;;;;;;;;;;;;;5082888;28;19919;-60
2022/06/02 10:42:15;;;;;;;;;;;;;;;;;;5085232;28;19951;-42
2022/06/02 10:44:44;;;;;;;;;;;;;;;;;;5078803;28;20375;-41
2022/06/02 10:47:11;;;;;;;;;;;;;;;;;;5081108;28;19991;-49
2022/06/02 10:49:38;;;;;;;;;;;;;;;;;;5084239;28;19920;-62
2022/06/02 10:52:05;;;;;;;;;;;;;;;;;;5068388;28;20532;-49
2022/06/02 10:54:31;;;;;;;;;;;;;;;;;;5088050;28;19963;-45
2022/06/02 10:56:58;;;;;;;;;;;;;;;;;;5086381;28;19957;-40
2022/06/02 10:59:24;;;;;;;;;;;;;;;;;;5088267;28;20304;-39
2022/06/02 11:01:51;;;;;;;;;;;;;;;;;;5088687;28;19915;-41
2022/06/02 11:04:18;;;;;;;;;;;;;;;;;;5087147;28;19951;-47
2022/06/02 11:06:44;;;;;;;;;;;;;;;;;;5085256;28;19920;-41
2022/06/02 11:09:11;;;;;;;;;;;;;;;;;;5085873;28;19917;-43
2022/06/02 11:11:37;;;;;;;;;;;;;;;;;;5087836;28;20031;-46
2022/06/02 11:14:04;;;;;;;;;;;;;;;;;;5089792;28;19911;-40
2022/06/02 11:16:30;;;;;;;;;;;;;;;;;;5084044;28;20350;-44
2022/06/02 11:18:57;;;;;;;;;;;;;;;;;;5085580;28;19963;-45
2022/06/02 11:21:23;;;;;;;;;;;;;;;;;;5089613;28;20373;-41
2022/06/02 11:23:50;;;;;;;;;;;;;;;;;;5088266;28;19912;-40
2022/06/02 11:26:16;;;;;;;;;;;;;;;;;;5085241;28;19922;-44
2022/06/02 11:28:42;;;;;;;;;;;;;;;;;;5088791;28;19909;-48
2022/06/02 11:31:09;;;;;;;;;;;;;;;;;;5087377;28;19931;-44
2022/06/02 11:33:35;;;;;;;;;;;;;;;;;;5087635;28;19915;-44
2022/06/02 11:36:02;;;;;;;;;;;;;;;;;;5083578;28;20309;-38
2022/06/02 11:38:29;;;;;;;;;;;;;;;;;;5083153;28;19919;-39
2022/06/02 11:40:55;;;;;;;;;;;;;;;;;;5086478;28;19999;-44
2022/06/02 11:43:26;;;;;;;;;;;;;;;;;;5089229;28;20244;-49
2022/06/02 11:45:53;;;;;;;;;;;;;;;;;;5082537;28;19923;-59
2022/06/02 11:48:20;;;;;;;;;;;;;;;;;;5087867;28;19917;-48
2022/06/02 11:50:46;;;;;;;;;;;;;;;;;;5088936;28;19982;-42
2022/06/02 11:53:13;;;;;;;;;;;;;;;;;;5085676;28;20359;-47
2022/06/02 11:55:39;;;;;;;;;;;;;;;;;;5080219;28;20410;-49
2022/06/02 11:58:06;;;;;;;;;;;;;;;;;;5089929;28;20369;-42
2022/06/02 12:00:32;;;;;;;;;;;;;;;;;;5086668;28;19941;-46
2022/06/02 12:03:00;;;;;;;;;;;;;;;;;;5083033;28;19908;-42
2022/06/02 12:05:27;;;;;;;;;;;;;;;;;;5066860;28;19908;-42
2022/06/02 12:07:54;;;;;;;;;;;;;;;;;;5087486;28;19928;-50
2022/06/02 12:10:20;;;;;;;;;;;;;;;;;;5084567;28;19983;-41
2022/06/02 12:12:47;;;;;;;;;;;;;;;;;;5088187;28;19981;-47
2022/06/02 12:15:14;;;;;;;;;;;;;;;;;;5084837;28;19962;-54
2022/06/02 12:17:40;;;;;;;;;;;;;;;;;;5086703;28;19912;-59
2022/06/02 12:20:06;;;;;;;;;;;;;;;;;;5087099;28;19953;-44
2022/06/02 12:22:37;;;;;;;;;;;;;;;;;;5083710;28;20322;-47
2022/06/02 12:25:03;;;;;;;;;;;;;;;;;;5079448;28;19916;-44
2022/06/02 12:27:29;;;;;;;;;;;;;;;;;;5071253;28;19943;-48
2022/06/02 12:29:56;;;;;;;;;;;;;;;;;;5079423;28;20367;-53
2022/06/02 12:32:23;;;;;;;;;;;;;;;;;;5073688;28;20381;-47
2022/06/02 12:34:49;;;;;;;;;;;;;;;;;;5073843;28;19913;-52
2022/06/02 12:37:16;;;;;;;;;;;;;;;;;;5073594;28;19919;-56
2022/06/02 12:39:43;;;;;;;;;;;;;;;;;;5074067;28;19930;-49
2022/06/02 12:42:09;;;;;;;;;;;;;;;;;;5073602;28;19916;-57
2022/06/02 12:44:36;;;;;;;;;;;;;;;;;;5073258;28;19908;-56
2022/06/02 12:47:02;;;;;;;;;;;;;;;;;;5073643;28;19954;-52
2022/06/02 12:49:29;;;;;;;;;;;;;;;;;;5073601;28;20350;-51
2022/06/02 12:51:56;;;;;;;;;;;;;;;;;;5072591;28;20267;-49
2022/06/02 12:54:23;;;;;;;;;;;;;;;;;;5070610;28;19909;-44
2022/06/02 12:56:50;;;;;;;;;;;;;;;;;;5071470;28;20355;-49
2022/06/02 12:59:16;;;;;;;;;;;;;;;;;;5072667;28;20275;-49
2022/06/02 13:01:42;;;;;;;;;;;;;;;;;;5072863;28;19931;-56
2022/06/02 13:04:09;;;;;;;;;;;;;;;;;;5072711;28;19912;-56
2022/06/02 13:06:35;;;;;;;;;;;;;;;;;;5073090;28;19908;-49
2022/06/02 13:09:02;;;;;;;;;;;;;;;;;;5093194;28;19924;-59
2022/06/02 13:11:29;;;;;;;;;;;;;;;;;;5093554;28;19912;-56
2022/06/02 13:13:55;;;;;;;;;;;;;;;;;;5093512;28;19912;-49
2022/06/02 13:16:22;;;;;;;;;;;;;;;;;;5093002;28;19924;-56
2022/06/02 13:18:51;;;;;;;;;;;;;;;;;;5093704;28;20327;-53
2022/06/02 13:21:17;;;;;;;;;;;;;;;;;;5093634;28;19994;-45
2022/06/02 13:23:44;;;;;;;;;;;;;;;;;;5093536;28;19909;-50
2022/06/02 13:26:12;;;;;;;;;;;;;;;;;;5093688;28;19908;-42
2022/06/02 13:28:39;;;;;;;;;;;;;;;;;;5093190;28;20003;-48
2022/06/02 13:31:07;;;;;;;;;;;;;;;;;;5093367;28;19908;-43
2022/06/02 13:33:34;;;;;;;;;;;;;;;;;;5093358;28;20259;-51
2022/06/02 13:36:01;;;;;;;;;;;;;;;;;;5093309;28;20320;-47
2022/06/02 13:38:27;;;;;;;;;;;;;;;;;;5093147;28;19952;-45
2022/06/02 13:40:54;;;;;;;;;;;;;;;;;;5093622;28;19908;-50
2022/06/02 13:43:20;;;;;;;;;;;;;;;;;;5093366;28;20321;-48
2022/06/02 13:45:47;;;;;;;;;;;;;;;;;;5093194;28;19912;-49
2022/06/02 13:48:13;;;;;;;;;;;;;;;;;;5093302;28;19915;-51
2022/06/02 13:50:40;;;;;;;;;;;;;;;;;;5092947;28;19919;-57
2022/06/02 13:53:07;;;;;;;;;;;;;;;;;;5092951;28;20278;-55
2022/06/02 13:58:18;;;;;;;;;;;;;;;;;;5092967;28;19953;-49
2022/06/02 14:00:44;;;;;;;;;;;;;;;;;;5092987;28;19923;-46
2022/06/02 14:03:11;;;;;;;;;;;;;;;;;;5093306;28;19916;-53
2022/06/02 14:05:37;;;;;;;;;;;;;;;;;;5093427;28;19908;-44
2022/06/02 14:08:04;;;;;;;;;;;;;;;;;;5092893;28;19920;-58
2022/06/02 14:10:30;;;;;;;;;;;;;;;;;;5093243;28;19991;-58
2022/06/02 14:12:57;;;;;;;;;;;;;;;;;;5092890;28;20401;-58
2022/06/02 14:15:23;;;;;;;;;;;;;;;;;;5093400;28;20355;-60
2022/06/02 14:17:50;;;;;;;;;;;;;;;;;;5093146;28;19935;-46
2022/06/02 14:20:17;;;;;;;;;;;;;;;;;;5092826;28;19915;-50
2022/06/02 14:22:43;;;;;;;;;;;;;;;;;;5092995;28;19908;-58
2022/06/02 14:25:10;;;;;;;;;;;;;;;;;;5092975;28;19912;-55
2022/06/02 14:27:36;;;;;;;;;;;;;;;;;;5095909;28;20374;-50
2022/06/02 14:30:03;;;;;;;;;;;;;;;;;;5096975;28;20274;-54
2022/06/02 14:32:29;;;;;;;;;;;;;;;;;;5096524;28;20251;-47
2022/06/02 14:34:55;;;;;;;;;;;;;;;;;;5096919;28;19922;-53
2022/06/02 14:37:22;;;;;;;;;;;;;;;;;;5096791;28;19908;-53
2022/06/02 14:39:48;;;;;;;;;;;;;;;;;;5096899;28;19908;-52
2022/06/02 14:42:15;;;;;;;;;;;;;;;;;;5096526;28;19915;-53
2022/06/02 14:44:41;;;;;;;;;;;;;;;;;;5096453;28;19951;-49
2022/06/02 14:47:08;;;;;;;;;;;;;;;;;;5096514;28;19961;-57
2022/06/02 14:49:34;;;;;;;;;;;;;;;;;;5096487;28;19936;-53
2022/06/02 14:52:01;;;;;;;;;;;;;;;;;;5096415;28;19908;-60
2022/06/02 14:54:27;;;;;;;;;;;;;;;;;;5096277;28;20294;-58
2022/06/02 14:56:54;;;;;;;;;;;;;;;;;;5096007;28;20323;-53
2022/06/02 14:59:20;;;;;;;;;;;;;;;;;;5096505;28;19912;-52
2022/06/02 15:01:47;;;;;;;;;;;;;;;;;;5096368;28;19915;-58
2022/06/02 15:04:15;;;;;;;;;;;;;;;;;;5096240;28;19914;-55
2022/06/02 15:06:42;;;;;;;;;;;;;;;;;;5095924;28;19914;-56
2022/06/02 15:09:08;;;;;;;;;;;;;;;;;;5096059;28;19966;-52
2022/06/02 15:11:35;;;;;;;;;;;;;;;;;;5095998;28;19908;-58
2022/06/02 15:14:03;;;;;;;;;;;;;;;;;;5096004;28;19908;-54
2022/06/02 15:16:30;;;;;;;;;;;;;;;;;;5095626;28;19920;-50
2022/06/02 15:18:58;;;;;;;;;;;;;;;;;;5095898;28;19951;-56
2022/06/02 15:21:24;;;;;;;;;;;;;;;;;;5095846;28;19913;-50
2022/06/02 15:23:51;;;;;;;;;;;;;;;;;;5095842;28;19908;-53
2022/06/02 15:26:17;;;;;;;;;;;;;;;;;;5095640;28;19908;-54
2022/06/02 15:28:44;;;;;;;;;;;;;;;;;;5080204;28;20122;-60
2022/06/02 15:31:11;;;;;;;;;;;;;;;;;;5075429;28;20003;-57
2022/06/02 15:33:37;;;;;;;;;;;;;;;;;;5075439;28;20382;-50
2022/06/02 15:36:04;;;;;;;;;;;;;;;;;;5075290;28;20359;-51
2022/06/02 15:38:30;;;;;;;;;;;;;;;;;;5074254;28;20360;-60
2022/06/02 15:40:57;;;;;;;;;;;;;;;;;;5075182;28;20356;-61
2022/06/02 15:43:23;;;;;;;;;;;;;;;;;;5075373;28;19916;-49
2022/06/02 15:45:50;;;;;;;;;;;;;;;;;;5075144;28;19919;-55
2022/06/02 15:48:16;;;;;;;;;;;;;;;;;;5075110;28;19996;-49
2022/06/02 15:50:43;;;;;;;;;;;;;;;;;;5075027;28;19915;-48
2022/06/02 15:53:10;;;;;;;;;;;;;;;;;;5074942;28;19915;-45
2022/06/02 15:55:36;;;;;;;;;;;;;;;;;;5075111;28;19924;-50
2022/06/02 15:58:03;;;;;;;;;;;;;;;;;;5074931;28;19909;-51
2022/06/02 16:00:29;;;;;;;;;;;;;;;;;;5074835;28;19915;-60
2022/06/02 16:02:56;;;;;;;;;;;;;;;;;;5075133;28;20370;-50
2022/06/02 16:05:22;;;;;;;;;;;;;;;;;;5075036;28;19916;-56
2022/06/02 16:07:49;;;;;;;;;;;;;;;;;;5074695;28;19921;-57
2022/06/02 16:13:00;;;;;;;;;;;;;;;;;;5074616;28;19966;-56
2022/06/02 16:15:26;;;;;;;;;;;;;;;;;;5074707;28;19955;-58
2022/06/02 16:17:53;;;;;;;;;;;;;;;;;;5074620;28;19916;-60
2022/06/02 16:20:19;;;;;;;;;;;;;;;;;;5074708;28;20374;-58
2022/06/02 16:22:47;;;;;;;;;;;;;;;;;;5074346;28;19909;-60
2022/06/02 16:25:14;;;;;;;;;;;;;;;;;;5074265;28;20366;-60
2022/06/02 16:27:49;;;;;;;;;;;;;;;;;;5074230;28;20329;-59
2022/06/02 16:30:16;;;;;;;;;;;;;;;;;;5074448;28;19908;-60
2022/06/02 16:32:42;;;;;;;;;;;;;;;;;;5074068;28;19970;-60
2022/06/02 16:35:08;;;;;;;;;;;;;;;;;;5072842;28;19919;-54
2022/06/02 16:37:35;;;;;;;;;;;;;;;;;;5074186;28;19954;-57
2022/06/02 16:40:01;;;;;;;;;;;;;;;;;;5074227;28;19996;-60
2022/06/02 16:42:28;;;;;;;;;;;;;;;;;;5074056;28;19954;-59
2022/06/02 16:44:55;;;;;;;;;;;;;;;;;;5074080;28;19931;-60
2022/06/02 16:47:22;;;;;;;;;;;;;;;;;;5073996;28;19909;-60
2022/06/02 16:49:49;;;;;;;;;;;;;;;;;;5073662;28;19919;-61
2022/06/02 16:52:15;;;;;;;;;;;;;;;;;;5073900;28;19916;-59
2022/06/02 16:54:42;;;;;;;;;;;;;;;;;;5073729;28;19962;-60
2022/06/02 16:57:11;;;;;;;;;;;;;;;;;;5073747;28;20006;-57
2022/06/02 16:59:38;;;;;;;;;;;;;;;;;;5073716;28;19919;-58